Time;durP1;ratioP1;P1;durP2;ratioP2;P2;SDS_P1;SDS_P2;PMS_P1;PMS_P2;Temp;Humidity;BMP_temperature;BMP_pressure;BME280_temperature;BME280_humidity;BME280_pressure;Samples;Min_cycle;Max_cycle;Signal;HPM_P1;HPM_P2
2021/01/07 00:04:12;;;;;;;13.73;6.33;;;;;;;2.50;82.61;100134.84;8600799;33;20252;-73
2021/01/07 00:09:14;;;;;;;6.83;3.87;;;;;;;2.50;82.29;100131.34;8599418;33;20220;-73
2021/01/07 00:14:19;;;;;;;21.63;8.37;;;;;;;2.56;82.24;100134.59;8600521;33;20549;-73
2021/01/07 00:19:21;;;;;;;14.43;6.50;;;;;;;2.40;82.05;100128.19;8599909;33;20191;-73
2021/01/07 00:24:23;;;;;;;19.53;7.57;;;;;;;2.33;82.80;100124.94;8599818;33;20191;-72
2021/01/07 00:29:28;;;;;;;14.93;6.00;;;;;;;2.32;82.60;100131.09;8599593;33;20634;-73
2021/01/07 00:34:30;;;;;;;15.10;6.67;;;;;;;2.21;82.72;100130.63;8600180;33;20181;-73
2021/01/07 00:39:32;;;;;;;13.53;7.17;;;;;;;2.42;82.65;100121.09;8599214;33;20669;-72
2021/01/07 00:44:36;;;;;;;16.13;7.00;;;;;;;2.53;82.44;100116.25;8599729;33;20180;-73
2021/01/07 00:49:38;;;;;;;16.63;6.90;;;;;;;2.57;81.59;100117.84;8598446;33;20182;-72
2021/01/07 00:54:41;;;;;;;13.43;6.63;;;;;;;2.28;82.40;100118.09;8574977;33;21486;-73
2021/01/07 00:59:48;;;;;;;14.63;6.30;;;;;;;2.54;81.52;100112.69;8598768;33;20686;-73
2021/01/07 01:04:51;;;;;;;9.57;5.20;;;;;;;2.47;81.53;100119.13;8599327;33;20926;-72
2021/01/07 01:09:53;;;;;;;12.70;5.57;;;;;;;2.28;81.60;100118.97;8597992;33;20193;-73
2021/01/07 01:14:57;;;;;;;9.37;4.67;;;;;;;2.35;81.65;100117.81;8599388;33;20193;-73
2021/01/07 01:19:59;;;;;;;15.03;6.40;;;;;;;2.64;81.08;100113.22;8598540;33;20145;-71
2021/01/07 01:25:07;;;;;;;11.67;6.17;;;;;;;2.57;81.05;100114.34;8603759;33;20239;-73
2021/01/07 01:30:14;;;;;;;12.77;6.20;;;;;;;2.66;80.95;100117.53;8602955;33;20477;-73
2021/01/07 01:35:16;;;;;;;12.23;5.73;;;;;;;2.50;81.01;100116.38;8603256;33;20191;-73
2021/01/07 01:40:18;;;;;;;14.07;6.30;;;;;;;2.56;81.10;100120.56;8578372;33;20280;-73
2021/01/07 01:45:24;;;;;;;11.13;5.00;;;;;;;2.41;81.51;100114.06;8603365;33;20133;-73
2021/01/07 01:50:26;;;;;;;12.40;5.70;;;;;;;2.47;81.34;100116.50;8602828;33;20474;-73
2021/01/07 01:55:28;;;;;;;13.60;5.93;;;;;;;2.35;81.39;100125.72;8603018;33;20236;-73
2021/01/07 02:00:32;;;;;;;7.90;4.87;;;;;;;2.43;81.40;100115.75;8602003;33;20826;-73
2021/01/07 02:05:34;;;;;;;12.80;4.60;;;;;;;2.46;81.22;100120.03;8602912;33;20185;-73
2021/01/07 02:10:36;;;;;;;10.47;6.00;;;;;;;2.63;80.87;100114.13;8578209;33;20188;-73
2021/01/07 02:15:42;;;;;;;12.97;5.20;;;;;;;2.52;80.64;100114.53;8602738;33;20289;-73
2021/01/07 02:20:45;;;;;;;11.07;4.67;;;;;;;2.39;81.17;100115.94;8600730;33;20979;-73
2021/01/07 02:25:48;;;;;;;9.40;3.83;;;;;;;2.68;80.31;100107.75;8602093;33;20544;-73
2021/01/07 02:30:50;;;;;;;10.00;4.90;;;;;;;2.56;80.82;100116.16;8601983;33;20197;-73
2021/01/07 02:35:53;;;;;;;10.33;5.00;;;;;;;2.44;81.06;100101.66;8601533;33;20335;-73
2021/01/07 02:40:56;;;;;;;8.60;4.50;;;;;;;2.39;80.80;100103.59;8601291;33;20619;-71
2021/01/07 02:45:58;;;;;;;8.73;4.53;;;;;;;2.39;81.73;100102.75;8601898;33;20180;-73
2021/01/07 02:51:01;;;;;;;10.23;4.57;;;;;;;2.51;81.10;100097.00;8600902;33;20279;-73
2021/01/07 02:56:04;;;;;;;9.93;4.17;;;;;;;2.52;81.35;100098.69;8601876;33;20558;-73
2021/01/07 03:01:13;;;;;;;8.90;4.70;;;;;;;2.55;81.22;100098.59;8602178;33;20177;-73
2021/01/07 03:06:16;;;;;;;10.87;4.53;;;;;;;2.43;82.09;100094.63;8601612;33;20185;-73
2021/01/07 03:11:19;;;;;;;10.40;5.23;;;;;;;2.35;82.19;100101.13;8601294;33;20284;-72
2021/01/07 03:16:21;;;;;;;7.43;3.27;;;;;;;2.53;81.42;100087.25;8602138;33;20248;-73
2021/01/07 03:21:24;;;;;;;12.03;4.70;;;;;;;2.48;82.19;100091.00;8600768;33;20187;-73
2021/01/07 03:26:27;;;;;;;9.23;4.50;;;;;;;2.64;81.91;100090.34;8601544;33;20247;-73
2021/01/07 03:31:29;;;;;;;10.53;4.90;;;;;;;2.56;81.63;100087.13;8600793;33;20279;-73
2021/01/07 03:36:32;;;;;;;7.50;4.33;;;;;;;2.44;84.37;100079.69;8600559;33;20788;-73
2021/01/07 03:41:35;;;;;;;12.17;5.23;;;;;;;2.60;81.55;100069.41;8601272;33;20201;-73
2021/01/07 03:46:37;;;;;;;10.97;5.83;;;;;;;2.29;82.71;100077.63;8600750;33;20192;-73
2021/01/07 03:51:41;;;;;;;10.93;4.97;;;;;;;2.53;82.17;100073.22;8600215;33;20470;-72
2021/01/07 03:56:43;;;;;;;7.63;4.53;;;;;;;2.23;82.17;100066.41;8600423;33;21722;-73
2021/01/07 04:01:45;;;;;;;8.13;4.20;;;;;;;2.32;82.31;100065.19;8600105;33;20947;-73
2021/01/07 04:06:48;;;;;;;13.33;5.40;;;;;;;2.48;82.27;100070.75;8600313;33;20189;-73
2021/01/07 04:11:51;;;;;;;12.63;5.43;;;;;;;2.36;82.19;100060.66;8599288;33;20181;-73
2021/01/07 04:16:53;;;;;;;12.40;5.13;;;;;;;2.51;81.82;100064.50;8600124;33;20703;-73
2021/01/07 04:22:00;;;;;;;7.60;4.20;;;;;;;2.48;82.66;100059.34;8599854;33;20192;-73
2021/01/07 04:27:03;;;;;;;9.63;4.77;;;;;;;2.53;82.28;100052.13;8599931;33;20278;-73
2021/01/07 04:32:06;;;;;;;11.93;4.93;;;;;;;2.56;82.40;100047.56;8599940;33;20544;-73
2021/01/07 04:37:09;;;;;;;9.77;4.83;;;;;;;2.30;83.47;100042.44;8599557;33;20696;-73
2021/01/07 04:42:12;;;;;;;11.27;5.83;;;;;;;2.53;82.78;100037.16;8599340;33;20204;-72
2021/01/07 04:47:15;;;;;;;10.87;5.73;;;;;;;2.49;82.76;100040.81;8600193;33;20183;-73
2021/01/07 04:52:19;;;;;;;10.90;5.07;;;;;;;2.44;82.87;100034.84;8599027;33;20153;-73
2021/01/07 04:57:21;;;;;;;9.13;4.93;;;;;;;2.50;82.49;100025.88;8601941;33;20189;-73
2021/01/07 05:02:24;;;;;;;12.30;5.33;;;;;;;2.63;82.52;100022.69;8603878;33;21534;-73
2021/01/07 05:07:28;;;;;;;11.50;5.20;;;;;;;2.47;83.06;100033.88;8604815;33;20547;-72
2021/01/07 05:12:30;;;;;;;11.87;5.30;;;;;;;2.52;83.15;100029.28;8579414;33;20192;-72
2021/01/07 05:17:32;;;;;;;11.57;5.13;;;;;;;2.57;82.66;100029.97;8603614;33;20902;-72
2021/01/07 05:22:38;;;;;;;13.13;6.27;;;;;;;2.51;83.06;100022.31;8603628;33;20279;-73
2021/01/07 05:27:42;;;;;;;11.03;5.80;;;;;;;2.53;82.89;100021.31;8603635;33;20546;-71
2021/01/07 05:32:44;;;;;;;8.17;5.10;;;;;;;2.60;82.52;100022.78;8603885;33;20697;-73
2021/01/07 05:37:48;;;;;;;11.40;5.33;;;;;;;2.64;82.78;100027.03;8604423;33;20695;-71
2021/01/07 05:42:58;;;;;;;12.73;5.93;;;;;;;2.57;83.10;100020.28;8604642;33;20216;-73
2021/01/07 05:48:02;;;;;;;12.63;6.13;;;;;;;2.39;83.40;100019.22;8603784;33;20698;-74
2021/01/07 05:53:06;;;;;;;11.37;5.57;;;;;;;2.51;83.08;100014.38;8603434;33;20189;-74
2021/01/07 05:58:09;;;;;;;14.67;5.50;;;;;;;2.65;82.35;100015.53;8603047;33;20228;-74
2021/01/07 06:03:14;;;;;;;10.47;5.00;;;;;;;2.47;82.52;100021.56;8603375;33;21028;-74
2021/01/07 06:08:18;;;;;;;11.57;5.90;;;;;;;2.55;82.48;100023.88;8603848;33;20432;-73
2021/01/07 06:13:20;;;;;;;12.13;5.87;;;;;;;2.66;81.92;100019.91;8603662;33;20272;-73
2021/01/07 06:18:24;;;;;;;11.27;4.87;;;;;;;2.68;81.71;100025.13;8603624;33;21660;-74
2021/01/07 06:23:31;;;;;;;9.83;4.80;;;;;;;2.45;82.56;100020.78;8602786;33;20165;-72
2021/01/07 06:28:37;;;;;;;9.73;5.57;;;;;;;2.61;82.45;100035.06;8603549;33;20153;-73
2021/01/07 06:33:39;;;;;;;9.93;4.53;;;;;;;2.60;82.52;100027.19;8602039;33;20158;-73
2021/01/07 06:38:53;;;;;;;9.40;5.20;;;;;;;2.59;82.10;100034.25;8602679;33;20438;-74
2021/01/07 06:43:57;;;;;;;13.13;5.87;;;;;;;2.68;82.39;100039.16;8601622;33;20804;-72
2021/01/07 06:49:18;;;;;;;9.10;5.37;;;;;;;2.65;81.91;100034.00;8576875;33;20193;-73
2021/01/07 06:54:23;;;;;;;11.77;6.73;;;;;;;2.58;82.30;100032.56;8601324;33;20576;-73
2021/01/07 06:59:26;;;;;;;8.37;6.00;;;;;;;2.65;82.13;100034.00;8601048;33;20518;-73
2021/01/07 07:04:30;;;;;;;13.63;6.17;;;;;;;2.44;82.96;100042.75;8602925;33;20185;-73
2021/01/07 07:09:41;;;;;;;13.30;6.37;;;;;;;2.58;82.04;100040.47;8601529;33;20244;-73
2021/01/07 07:14:51;;;;;;;8.33;4.87;;;;;;;2.56;82.38;100044.09;8601446;33;20552;-73
2021/01/07 07:19:54;;;;;;;13.53;6.50;;;;;;;2.65;82.38;100041.91;8600927;33;20500;-73
2021/01/07 07:25:01;;;;;;;13.20;6.47;;;;;;;2.53;82.84;100052.13;8601229;33;20658;-71
2021/01/07 07:30:06;;;;;;;11.43;4.93;;;;;;;2.57;82.30;100043.16;8601194;33;20193;-72
2021/01/07 07:35:21;;;;;;;10.70;5.47;;;;;;;2.39;83.15;100047.38;8601182;33;20586;-72
2021/01/07 07:40:33;;;;;;;9.27;5.40;;;;;;;2.49;82.81;100051.34;8600814;33;20419;-72
2021/01/07 07:45:38;;;;;;;10.13;5.07;;;;;;;2.49;82.87;100055.78;8600833;33;20152;-72
2021/01/07 07:50:40;;;;;;;13.00;6.13;;;;;;;2.54;83.03;100059.94;8600702;33;20311;-72
2021/01/07 07:55:44;;;;;;;6.63;4.17;;;;;;;2.45;82.85;100073.50;8576825;33;21104;-72
2021/01/07 08:00:50;;;;;;;12.20;6.20;;;;;;;2.59;82.75;100072.97;8649992;33;20708;-72
2021/01/07 08:05:53;;;;;;;13.03;6.47;;;;;;;2.53;83.19;100074.06;8632326;33;20192;-72
2021/01/07 08:10:58;;;;;;;12.33;5.23;;;;;;;2.58;82.76;100072.13;8656329;33;20231;-72
2021/01/07 08:16:00;;;;;;;12.10;5.40;;;;;;;2.75;82.50;100082.00;8673592;33;20195;-72
2021/01/07 08:21:09;;;;;;;13.27;6.00;;;;;;;2.75;82.31;100083.78;8655987;33;20492;-72
2021/01/07 08:26:26;;;;;;;11.13;6.37;;;;;;;2.57;82.61;100080.94;8655803;33;20174;-72
2021/01/07 08:31:30;;;;;;;10.23;4.87;;;;;;;2.77;81.76;100088.09;8623548;33;20190;-70
2021/01/07 08:36:32;;;;;;;7.47;4.53;;;;;;;2.69;81.89;100084.88;8659221;33;20230;-71
2021/01/07 08:41:37;;;;;;;5.40;3.07;;;;;;;2.49;81.92;100090.91;8661032;33;20535;-70
2021/01/07 08:46:42;;;;;;;6.83;4.13;;;;;;;2.43;80.93;100080.59;8661430;33;20192;-70
2021/01/07 08:51:46;;;;;;;8.23;4.43;;;;;;;2.81;80.91;100079.09;8661442;33;20460;-71
2021/01/07 08:56:51;;;;;;;7.07;3.90;;;;;;;2.61;80.98;100073.78;8625899;33;20170;-70
2021/01/07 09:01:56;;;;;;;5.20;3.30;;;;;;;2.55;81.00;100068.72;8610490;33;20221;-70
2021/01/07 09:07:03;;;;;;;9.37;4.03;;;;;;;2.68;80.97;100077.88;8579132;33;20310;-71
2021/01/07 09:12:14;;;;;;;5.57;3.47;;;;;;;2.83;80.55;100077.28;8601370;33;20287;-70
2021/01/07 09:17:19;;;;;;;7.17;3.67;;;;;;;2.53;81.23;100075.84;8603088;34;20184;-71
2021/01/07 09:22:24;;;;;;;8.47;4.90;;;;;;;2.80;81.50;100076.56;8603644;34;20195;-70
2021/01/07 09:27:28;;;;;;;8.87;4.77;;;;;;;2.81;81.34;100084.38;8602718;33;20486;-70
2021/01/07 09:32:30;;;;;;;13.50;6.13;;;;;;;2.92;81.25;100081.31;8602324;33;20311;-70
2021/01/07 09:37:35;;;;;;;6.90;4.17;;;;;;;2.68;81.76;100080.50;8601385;33;20721;-69
2021/01/07 09:42:39;;;;;;;11.83;4.80;;;;;;;2.96;81.46;100079.41;8599404;34;20255;-70
2021/01/07 09:47:42;;;;;;;11.07;6.33;;;;;;;2.96;81.22;100080.25;8656731;33;20722;-70
2021/01/07 09:52:44;;;;;;;9.77;5.43;;;;;;;3.03;80.71;100075.63;8657684;33;20192;-71
2021/01/07 09:57:49;;;;;;;13.20;5.93;;;;;;;3.05;80.83;100077.28;8659954;33;20271;-71
2021/01/07 10:02:51;;;;;;;9.77;5.67;;;;;;;2.82;80.86;100075.53;8659765;33;20277;-70
2021/01/07 10:07:54;;;;;;;10.77;5.63;;;;;;;3.04;80.82;100083.44;8659826;33;20295;-70
2021/01/07 10:12:57;;;;;;;6.93;4.73;;;;;;;2.98;81.08;100080.22;8660281;33;21405;-71
2021/01/07 10:18:00;;;;;;;7.73;4.43;;;;;;;3.00;80.67;100083.66;8660245;33;20295;-70
2021/01/07 10:23:07;;;;;;;10.03;5.93;;;;;;;3.02;80.77;100074.75;8660034;33;20282;-70
2021/01/07 10:28:14;;;;;;;9.77;4.23;;;;;;;2.87;81.15;100072.72;8635377;33;20757;-71
2021/01/07 10:33:21;;;;;;;12.77;5.13;;;;;;;3.24;80.77;100064.19;8658628;33;20149;-70
2021/01/07 10:38:24;;;;;;;8.53;4.13;;;;;;;2.97;80.76;100073.22;8658991;33;20287;-71
2021/01/07 10:43:29;;;;;;;7.70;4.33;;;;;;;3.23;80.89;100056.31;8658766;33;20655;-70
2021/01/07 10:48:36;;;;;;;9.33;4.67;;;;;;;3.03;81.04;100062.41;8658849;33;20215;-70
2021/01/07 10:54:08;;;;;;;7.30;3.20;;;;;;;3.28;79.73;100056.97;8657961;33;20165;-71
2021/01/07 10:59:29;;;;;;;8.20;4.70;;;;;;;3.16;80.17;100046.94;8658067;33;20214;-70
2021/01/07 11:05:13;;;;;;;4.43;3.20;;;;;;;3.10;80.53;100054.19;8658740;33;20176;-70
2021/01/07 11:10:33;;;;;;;8.13;4.33;;;;;;;2.58;81.20;100027.28;8558760;33;20760;-69
2021/01/07 11:15:56;;;;;;;8.90;3.43;;;;;;;2.95;80.93;100033.69;8658626;33;20860;-71
2021/01/07 11:21:05;;;;;;;10.77;5.03;;;;;;;2.98;80.55;100023.00;8658323;33;20168;-71
2021/01/07 11:26:09;;;;;;;11.40;5.10;;;;;;;3.06;80.44;100012.13;8656982;33;20214;-71
2021/01/07 11:31:13;;;;;;;9.17;4.73;;;;;;;2.90;80.29;100022.47;8657606;33;20180;-70
2021/01/07 11:36:22;;;;;;;10.07;5.00;;;;;;;3.13;80.22;100016.25;8658374;33;20180;-72
2021/01/07 11:41:42;;;;;;;11.80;5.80;;;;;;;3.08;80.49;100002.38;8656980;33;20246;-68
2021/01/07 11:46:48;;;;;;;11.47;5.03;;;;;;;3.11;80.40;99996.97;8652404;33;20188;-69
2021/01/07 11:51:56;;;;;;;5.23;3.57;;;;;;;3.07;79.97;99998.00;8657051;33;20185;-71
2021/01/07 11:56:59;;;;;;;14.60;5.93;;;;;;;3.05;80.58;100003.38;8654631;33;20207;-71
2021/01/07 12:02:07;;;;;;;16.67;6.77;;;;;;;3.21;80.11;99994.78;8699009;33;20172;-71
2021/01/07 12:07:28;;;;;;;12.30;5.70;;;;;;;3.34;80.13;99985.41;8714109;33;20171;-70
2021/01/07 12:12:37;;;;;;;11.93;5.40;;;;;;;3.49;79.53;99975.97;8691210;33;20436;-71
2021/01/07 12:17:41;;;;;;;14.57;6.07;;;;;;;3.49;79.76;99978.63;8630981;33;20833;-72
2021/01/07 12:22:44;;;;;;;13.37;6.43;;;;;;;3.58;79.12;99974.72;8673950;33;20211;-70
2021/01/07 12:27:48;;;;;;;13.83;6.83;;;;;;;3.50;79.37;99972.41;8674326;33;20620;-72
2021/01/07 12:33:09;;;;;;;13.03;6.20;;;;;;;3.31;78.82;99975.84;8618325;33;20983;-72
2021/01/07 12:38:23;;;;;;;11.87;5.60;;;;;;;3.16;79.55;99965.13;8653539;33;20190;-71
2021/01/07 12:43:30;;;;;;;9.73;4.17;;;;;;;3.12;79.07;99969.63;8655257;33;21746;-72
2021/01/07 12:48:37;;;;;;;11.73;5.63;;;;;;;3.16;79.85;99950.13;8654834;33;20826;-72
2021/01/07 12:53:42;;;;;;;13.23;5.60;;;;;;;3.16;79.57;99952.75;8655511;33;20600;-72
2021/01/07 12:58:48;;;;;;;13.30;5.97;;;;;;;3.06;80.27;99957.56;8654808;33;20188;-72
2021/01/07 13:04:01;;;;;;;10.60;4.37;;;;;;;3.17;80.12;99954.47;8622778;33;20276;-72
2021/01/07 13:09:07;;;;;;;9.97;5.17;;;;;;;3.00;79.99;99943.78;8652292;33;21678;-72
2021/01/07 13:14:10;;;;;;;9.70;5.23;;;;;;;3.18;79.76;99950.91;8655897;33;21494;-72
2021/01/07 13:19:13;;;;;;;15.40;6.73;;;;;;;3.25;79.21;99944.44;8658671;33;20185;-72
2021/01/07 13:24:17;;;;;;;8.17;4.33;;;;;;;3.06;80.04;99952.28;8659570;33;20724;-72
2021/01/07 13:29:19;;;;;;;11.90;5.30;;;;;;;3.27;79.92;99934.66;8658877;33;20153;-72
2021/01/07 13:34:23;;;;;;;12.07;5.77;;;;;;;3.28;80.26;99935.53;8659137;33;20234;-72
2021/01/07 13:39:25;;;;;;;10.33;6.07;;;;;;;3.49;79.88;99931.94;8654704;33;21706;-73
2021/01/07 13:44:28;;;;;;;13.33;6.07;;;;;;;3.54;79.32;99926.47;8659529;33;20277;-72
2021/01/07 13:49:34;;;;;;;8.93;4.17;;;;;;;3.32;79.78;99929.19;8659724;33;20267;-72
2021/01/07 13:54:38;;;;;;;10.07;5.23;;;;;;;3.42;79.85;99934.91;8659488;33;20199;-71
2021/01/07 13:59:41;;;;;;;10.17;4.43;;;;;;;3.61;79.60;99937.59;8658331;33;20740;-71
2021/01/07 14:04:44;;;;;;;13.10;5.50;;;;;;;3.66;79.85;99928.53;8658809;33;20645;-72
2021/01/07 14:09:47;;;;;;;12.00;5.10;;;;;;;3.69;80.14;99931.03;8647061;33;20528;-72
2021/01/07 14:14:49;;;;;;;13.33;5.43;;;;;;;3.94;80.11;99925.47;8659473;33;20184;-73
2021/01/07 14:19:53;;;;;;;12.73;5.07;;;;;;;3.94;79.47;99929.88;8658445;33;20948;-73
2021/01/07 14:24:56;;;;;;;14.50;5.93;;;;;;;3.87;79.70;99929.34;8659155;33;20269;-71
2021/01/07 14:30:04;;;;;;;16.23;6.60;;;;;;;4.03;79.78;99928.59;8657843;33;20165;-73
2021/01/07 14:35:12;;;;;;;12.97;6.17;;;;;;;3.90;79.80;99929.19;8634174;33;20189;-73
2021/01/07 14:40:18;;;;;;;11.57;5.80;;;;;;;3.80;79.87;99927.88;8658553;33;20188;-73
2021/01/07 14:45:23;;;;;;;13.83;5.83;;;;;;;3.67;80.45;99921.44;8633649;33;20330;-73
2021/01/07 14:50:29;;;;;;;15.37;6.90;;;;;;;3.67;80.17;99927.59;8656519;33;21579;-73
2021/01/07 14:55:32;;;;;;;15.27;6.73;;;;;;;3.78;80.34;99927.97;8656113;33;20137;-72
2021/01/07 15:00:39;;;;;;;12.23;6.53;;;;;;;3.74;80.71;99929.03;8652566;33;20207;-71
2021/01/07 15:05:43;;;;;;;15.03;7.07;;;;;;;3.70;80.11;99929.22;8656126;33;20482;-73
2021/01/07 15:10:48;;;;;;;11.83;5.80;;;;;;;3.59;80.73;99929.72;8655834;33;20192;-72
2021/01/07 15:15:55;;;;;;;15.63;7.10;;;;;;;3.64;80.61;99927.72;8656263;33;20218;-72
2021/01/07 15:21:07;;;;;;;12.20;5.37;;;;;;;3.71;80.69;99923.88;8652291;33;20559;-73
2021/01/07 15:26:15;;;;;;;17.03;7.50;;;;;;;3.55;80.95;99934.28;8655481;33;20163;-73
2021/01/07 15:31:29;;;;;;;17.37;8.03;;;;;;;3.66;80.98;99930.31;8628134;33;20183;-71
2021/01/07 15:37:16;;;;;;;19.30;8.13;;;;;;;3.60;80.88;99944.66;8655844;33;20525;-72
2021/01/07 15:43:02;;;;;;;14.53;7.50;;;;;;;3.52;81.04;99942.34;8656520;33;20184;-72
2021/01/07 15:48:40;;;;;;;19.70;8.93;;;;;;;3.47;81.23;99944.34;8656669;33;20276;-72
2021/01/07 15:54:42;;;;;;;22.13;9.50;;;;;;;3.58;81.10;99940.38;8656000;33;20457;-74
2021/01/07 15:59:53;;;;;;;18.53;9.17;;;;;;;3.64;81.47;99942.72;8656249;33;20862;-73
2021/01/07 16:05:01;;;;;;;23.07;10.13;;;;;;;3.63;81.05;99941.03;8656866;33;20674;-74
2021/01/07 16:10:06;;;;;;;23.37;10.20;;;;;;;3.64;81.36;99929.53;8656393;33;20177;-74
2021/01/07 16:15:10;;;;;;;18.40;8.90;;;;;;;3.62;81.36;99934.00;8657059;33;20277;-71
2021/01/07 16:20:14;;;;;;;25.53;9.87;;;;;;;3.52;81.04;99930.94;8655369;33;20653;-71
2021/01/07 16:25:29;;;;;;;23.83;10.97;;;;;;;3.48;81.16;99932.88;8694047;33;20793;-71
2021/01/07 16:30:31;;;;;;;24.37;10.50;;;;;;;3.47;81.64;99923.22;8653809;33;20160;-71
2021/01/07 16:35:34;;;;;;;21.20;9.97;;;;;;;3.50;81.36;99919.56;8654738;33;20255;-72
2021/01/07 16:40:37;;;;;;;24.03;10.87;;;;;;;3.48;81.63;99927.59;8653751;33;20200;-72
2021/01/07 16:45:40;;;;;;;24.17;9.73;;;;;;;3.53;81.62;99925.56;8653724;33;20538;-71
2021/01/07 16:50:42;;;;;;;26.73;11.13;;;;;;;3.46;81.61;99926.78;8654391;33;20251;-72
2021/01/07 16:55:45;;;;;;;20.70;9.23;;;;;;;3.51;82.05;99923.94;8660091;33;20192;-72
2021/01/07 17:00:48;;;;;;;22.97;11.17;;;;;;;3.54;81.50;99926.47;8659600;33;20528;-71
2021/01/07 17:05:50;;;;;;;22.27;10.43;;;;;;;3.50;81.92;99924.88;8660257;33;20635;-71
2021/01/07 17:10:54;;;;;;;25.63;10.57;;;;;;;3.52;81.73;99930.94;8659906;33;20220;-71
2021/01/07 17:15:56;;;;;;;27.37;11.33;;;;;;;3.47;81.87;99927.66;8659039;33;20149;-71
2021/01/07 17:20:58;;;;;;;26.20;13.27;;;;;;;3.59;81.85;99928.88;8642026;33;20212;-71
2021/01/07 17:26:01;;;;;;;27.40;11.80;;;;;;;3.64;81.76;99927.72;8661962;33;20255;-71
2021/01/07 17:31:04;;;;;;;29.57;11.40;;;;;;;3.61;81.84;99924.38;8659171;33;20724;-71
2021/01/07 17:36:08;;;;;;;31.30;12.10;;;;;;;3.62;81.70;99926.97;8658709;33;20215;-72
2021/01/07 17:41:11;;;;;;;25.87;12.40;;;;;;;3.59;81.99;99929.72;8633928;33;20251;-72
2021/01/07 17:46:16;;;;;;;27.73;13.73;;;;;;;3.64;81.70;99925.09;8634009;33;20184;-71
2021/01/07 17:51:19;;;;;;;29.10;12.30;;;;;;;3.53;81.77;99925.56;8657263;33;21682;-72
2021/01/07 17:56:24;;;;;;;29.23;13.47;;;;;;;3.63;81.57;99923.38;8657819;33;20998;-72
2021/01/07 18:01:31;;;;;;;29.47;13.27;;;;;;;3.59;81.80;99921.78;8658103;33;20180;-72
2021/01/07 18:06:35;;;;;;;33.37;13.50;;;;;;;3.47;81.82;99925.84;8659017;33;20333;-73
2021/01/07 18:11:39;;;;;;;29.93;12.27;;;;;;;3.48;81.77;99927.59;8654007;33;20970;-71
2021/01/07 18:16:41;;;;;;;35.63;12.27;;;;;;;3.46;81.80;99932.06;8657412;33;20593;-72
2021/01/07 18:21:43;;;;;;;23.07;9.53;;;;;;;3.39;81.52;99920.06;8633476;33;20710;-71
2021/01/07 18:26:48;;;;;;;25.50;10.87;;;;;;;3.39;81.44;99927.13;8621508;33;20470;-71
2021/01/07 18:31:51;;;;;;;27.87;11.83;;;;;;;3.30;81.64;99921.34;8656627;33;20163;-72
2021/01/07 18:36:55;;;;;;;29.53;13.53;;;;;;;3.35;81.85;99921.13;8657171;33;20223;-72
2021/01/07 18:41:58;;;;;;;30.13;11.67;;;;;;;3.42;81.75;99917.28;8657107;33;20199;-73
2021/01/07 18:47:05;;;;;;;28.43;12.93;;;;;;;3.43;81.94;99912.84;8633176;33;20159;-71
2021/01/07 18:52:07;;;;;;;26.57;12.47;;;;;;;3.43;81.96;99918.13;8656513;33;20699;-72
2021/01/07 18:57:10;;;;;;;22.50;11.53;;;;;;;3.43;82.08;99916.38;8657099;33;20289;-72
2021/01/07 19:02:12;;;;;;;29.37;12.90;;;;;;;3.38;82.03;99923.63;8657508;33;20191;-72
2021/01/07 19:07:15;;;;;;;34.67;12.67;;;;;;;3.40;82.08;99920.91;8657330;33;20247;-71
2021/01/07 19:12:19;;;;;;;30.13;12.13;;;;;;;3.36;81.89;99919.34;8632124;33;21569;-71
2021/01/07 19:17:21;;;;;;;25.10;11.43;;;;;;;3.37;81.86;99924.53;8654594;33;20243;-71
2021/01/07 19:22:23;;;;;;;24.80;9.57;;;;;;;3.38;81.70;99915.72;8656400;33;20231;-71
2021/01/07 19:27:27;;;;;;;28.97;11.70;;;;;;;3.25;81.85;99915.41;8655364;33;20640;-71
2021/01/07 19:32:30;;;;;;;31.40;10.97;;;;;;;3.32;82.11;99913.34;8629211;33;20276;-72
2021/01/07 19:37:32;;;;;;;23.60;10.60;;;;;;;3.25;82.16;99914.53;8652881;33;20676;-71
2021/01/07 19:42:36;;;;;;;27.83;12.30;;;;;;;3.28;82.16;99914.41;8656176;33;20583;-72
2021/01/07 19:47:38;;;;;;;26.70;10.87;;;;;;;3.33;81.80;99912.41;8655930;33;21897;-71
2021/01/07 19:52:43;;;;;;;28.03;11.37;;;;;;;3.38;82.23;99917.50;8656064;33;20194;-71
2021/01/07 19:57:46;;;;;;;25.53;11.50;;;;;;;3.40;82.25;99907.72;8655485;33;20264;-72
2021/01/07 20:02:49;;;;;;;23.43;11.40;;;;;;;3.37;82.34;99911.34;8655895;33;20564;-71
2021/01/07 20:07:54;;;;;;;28.83;11.83;;;;;;;3.41;82.08;99907.66;8655908;33;20125;-70
2021/01/07 20:12:59;;;;;;;25.63;10.70;;;;;;;3.39;82.15;99912.13;8655621;33;20622;-70
2021/01/07 20:18:01;;;;;;;23.27;10.13;;;;;;;3.35;82.07;99913.22;8631129;33;20190;-71
2021/01/07 20:23:04;;;;;;;19.90;9.77;;;;;;;3.41;82.19;99910.28;8655039;33;21561;-71
2021/01/07 20:28:07;;;;;;;29.43;11.57;;;;;;;3.44;82.20;99912.78;8711926;33;20183;-71
2021/01/07 20:33:09;;;;;;;22.70;10.87;;;;;;;3.46;82.23;99915.38;8640900;33;20188;-72
2021/01/07 20:38:15;;;;;;;25.13;11.37;;;;;;;3.49;81.91;99907.31;8651392;33;20422;-71
2021/01/07 20:43:19;;;;;;;27.33;10.70;;;;;;;3.47;81.92;99914.44;8655515;33;20763;-71
2021/01/07 20:48:21;;;;;;;24.97;10.77;;;;;;;3.48;81.95;99917.03;8655167;33;20254;-71
2021/01/07 20:53:24;;;;;;;19.10;10.70;;;;;;;3.42;82.23;99911.16;8653710;33;20142;-71
2021/01/07 20:58:27;;;;;;;25.90;10.97;;;;;;;3.35;82.06;99915.84;8654466;33;21032;-71
2021/01/07 21:03:30;;;;;;;25.43;10.27;;;;;;;3.38;82.40;99917.50;8654634;33;20247;-70
2021/01/07 21:08:33;;;;;;;20.43;10.57;;;;;;;3.37;82.19;99916.63;8655015;33;20188;-70
2021/01/07 21:13:36;;;;;;;17.63;9.07;;;;;;;3.46;82.37;99912.75;8653755;33;20350;-71
2021/01/07 21:18:38;;;;;;;21.20;9.20;;;;;;;3.49;81.95;99912.59;8662362;33;20663;-71
2021/01/07 21:23:41;;;;;;;21.30;9.90;;;;;;;3.49;82.32;99894.97;8707112;33;20637;-71
2021/01/07 21:28:44;;;;;;;19.50;9.13;;;;;;;3.43;82.14;99905.81;8654493;33;20267;-72
2021/01/07 21:33:46;;;;;;;20.43;8.80;;;;;;;3.38;82.14;99896.38;8655537;33;20673;-70
2021/01/07 21:38:48;;;;;;;18.23;9.50;;;;;;;3.40;82.30;99903.31;8658163;33;20188;-70
2021/01/07 21:43:55;;;;;;;21.10;9.20;;;;;;;3.39;82.33;99900.72;8660765;33;20156;-71
2021/01/07 21:48:57;;;;;;;17.17;9.50;;;;;;;3.43;82.25;99904.94;8658759;33;20218;-71
2021/01/07 21:53:59;;;;;;;17.57;9.20;;;;;;;3.46;82.18;99910.94;8635292;33;20233;-71
2021/01/07 21:59:03;;;;;;;16.60;8.77;;;;;;;3.47;82.05;99910.00;8660382;33;20180;-72
2021/01/07 22:04:06;;;;;;;22.80;10.43;;;;;;;3.52;82.24;99909.81;8660496;33;21057;-72
2021/01/07 22:09:08;;;;;;;20.07;9.47;;;;;;;3.53;82.41;99911.50;8660214;33;20279;-72
2021/01/07 22:14:12;;;;;;;20.43;9.73;;;;;;;3.58;82.33;99911.31;8660027;33;20241;-71
2021/01/07 22:19:14;;;;;;;18.97;9.83;;;;;;;3.50;82.52;99917.78;8659611;33;20180;-71
2021/01/07 22:24:17;;;;;;;19.80;9.80;;;;;;;3.44;82.54;99917.22;8659499;33;20255;-71
2021/01/07 22:29:20;;;;;;;23.67;9.77;;;;;;;3.40;82.33;99913.88;8634423;33;20659;-71
2021/01/07 22:34:22;;;;;;;22.40;10.97;;;;;;;3.34;82.55;99914.13;8660425;33;20196;-70
2021/01/07 22:39:25;;;;;;;21.93;10.53;;;;;;;3.33;82.36;99917.69;8635249;33;20457;-71
2021/01/07 22:44:28;;;;;;;21.97;10.40;;;;;;;3.42;82.71;99914.63;8658361;33;20188;-71
2021/01/07 22:49:30;;;;;;;24.20;10.50;;;;;;;3.23;82.57;99908.47;8657194;33;20287;-70
2021/01/07 22:54:33;;;;;;;26.50;10.27;;;;;;;3.32;82.93;99903.66;8658155;33;20953;-71
2021/01/07 22:59:36;;;;;;;24.27;11.37;;;;;;;3.39;82.70;99898.94;8658647;33;20149;-70
2021/01/07 23:04:39;;;;;;;21.87;10.10;;;;;;;3.38;82.76;99902.50;8659017;33;20697;-71
2021/01/07 23:09:41;;;;;;;22.27;10.33;;;;;;;3.30;82.85;99912.56;8659552;33;20243;-70
2021/01/07 23:14:49;;;;;;;20.07;10.03;;;;;;;3.38;82.74;99909.59;8634451;33;21132;-72
2021/01/07 23:19:51;;;;;;;22.73;10.33;;;;;;;3.42;82.76;99901.44;8658166;33;20236;-71
2021/01/07 23:24:53;;;;;;;20.93;10.50;;;;;;;3.48;82.91;99909.09;8658560;33;20181;-70
2021/01/07 23:29:57;;;;;;;21.07;9.93;;;;;;;3.45;82.79;99898.66;8658360;33;20214;-70
2021/01/07 23:35:00;;;;;;;19.03;9.63;;;;;;;3.44;82.59;99911.94;8658186;33;20180;-71
2021/01/07 23:40:03;;;;;;;22.53;10.17;;;;;;;3.43;82.77;99900.53;8657639;33;20247;-71
2021/01/07 23:45:10;;;;;;;18.53;9.43;;;;;;;3.38;82.80;99905.16;8658282;33;20200;-70
2021/01/07 23:50:13;;;;;;;22.70;9.93;;;;;;;3.37;82.35;99902.56;8658103;33;20266;-71